createdAt,value
2023-09-23T00:00:50.594Z,13.50
2023-09-23T00:03:17.817Z,13.50
2023-09-23T00:05:45.755Z,13.50
2023-09-23T00:08:12.889Z,13.50
2023-09-23T00:10:40.114Z,13.50
2023-09-23T00:13:07.308Z,13.50
2023-09-23T00:15:36.355Z,13.60
2023-09-23T00:18:03.544Z,13.50
2023-09-23T00:20:30.514Z,13.40
2023-09-23T00:22:57.555Z,13.40
2023-09-23T00:25:25.004Z,13.30
2023-09-23T00:27:56.130Z,13.40
2023-09-23T00:30:27.855Z,13.30
2023-09-23T00:32:55.081Z,13.30
2023-09-23T00:35:22.051Z,13.30
2023-09-23T00:37:51.077Z,13.20
2023-09-23T00:40:25.928Z,13.20
2023-09-23T00:42:52.860Z,13.20
2023-09-23T00:45:23.626Z,13.20
2023-09-23T00:47:50.864Z,13.20
2023-09-23T00:50:19.812Z,13.20
2023-09-23T00:52:54.224Z,13.20
2023-09-23T00:55:21.836Z,13.20
2023-09-23T00:57:50.155Z,13.10
2023-09-23T01:00:25.588Z,13.10
2023-09-23T01:02:56.999Z,13.10
2023-09-23T01:05:28.137Z,13.10
2023-09-23T01:08:18.530Z,13.10
2023-09-23T01:10:46.613Z,13.10
2023-09-23T01:13:13.505Z,13.10
2023-09-23T01:15:41.807Z,13.10
2023-09-23T01:18:09.776Z,13.10
2023-09-23T01:20:38.518Z,13.10
2023-09-23T01:23:06.456Z,13.10
2023-09-23T01:25:37.731Z,13.10
2023-09-23T01:28:09.780Z,13.20
2023-09-23T01:30:37.235Z,13.20
2023-09-23T01:33:08.533Z,13.30
2023-09-23T01:35:36.140Z,13.30
2023-09-23T01:38:04.792Z,13.30
2023-09-23T01:40:33.435Z,13.30
2023-09-23T01:43:00.356Z,13.30
2023-09-23T01:45:27.642Z,13.30
2023-09-23T01:47:58.058Z,13.30
2023-09-23T01:50:28.916Z,13.30
2023-09-23T01:53:01.432Z,13.30
2023-09-23T01:55:29.771Z,13.40
2023-09-23T01:57:57.357Z,13.40
2023-09-23T02:00:30.697Z,13.40
2023-09-23T02:02:58.660Z,13.40
2023-09-23T02:05:30.423Z,13.40
2023-09-23T02:07:57.597Z,13.40
2023-09-23T02:10:27.426Z,13.50
2023-09-23T02:12:54.986Z,13.40
2023-09-23T02:15:21.982Z,13.40
2023-09-23T02:17:50.217Z,13.40
2023-09-23T02:20:20.200Z,13.50
2023-09-23T02:22:55.153Z,13.50
2023-09-23T02:25:26.727Z,13.60
2023-09-23T02:27:56.131Z,13.60
2023-09-23T02:30:23.303Z,13.60
2023-09-23T02:32:50.348Z,13.60
2023-09-23T02:35:17.826Z,13.60
2023-09-23T02:37:47.430Z,13.60
2023-09-23T02:40:17.766Z,13.60
2023-09-23T02:42:48.464Z,13.60
2023-09-23T02:45:18.737Z,13.60
2023-09-23T02:47:45.968Z,13.50
2023-09-23T02:50:15.757Z,13.50
2023-09-23T02:52:46.505Z,13.60
2023-09-23T02:55:16.997Z,13.60
2023-09-23T02:57:55.366Z,13.60
2023-09-23T03:00:25.252Z,13.60
2023-09-23T03:02:58.094Z,13.50
2023-09-23T03:05:28.618Z,13.50
2023-09-23T03:07:59.143Z,13.40
2023-09-23T03:10:40.457Z,13.40
2023-09-23T03:13:08.912Z,13.50
2023-09-23T03:15:54.507Z,13.50
2023-09-23T03:18:34.721Z,13.50
2023-09-23T03:21:11.728Z,13.50
2023-09-23T03:23:42.105Z,13.50
2023-09-23T03:26:10.417Z,13.40
2023-09-23T03:28:40.292Z,13.40
2023-09-23T03:31:10.297Z,13.50
2023-09-23T03:33:38.311Z,13.40
2023-09-23T03:36:10.977Z,13.40
2023-09-23T03:38:38.822Z,13.40
2023-09-23T03:41:05.697Z,13.40
2023-09-23T03:43:33.098Z,13.40
2023-09-23T03:45:59.972Z,13.30
2023-09-23T03:48:26.949Z,13.30
2023-09-23T03:50:54.864Z,13.30
2023-09-23T03:53:22.788Z,13.30
2023-09-23T03:55:53.385Z,13.30
2023-09-23T03:58:20.646Z,13.30
2023-09-23T04:00:48.420Z,13.30
2023-09-23T04:03:16.056Z,13.30
2023-09-23T04:05:43.030Z,13.20
2023-09-23T04:08:10.451Z,13.30
2023-09-23T04:10:41.072Z,13.20
2023-09-23T04:13:08.298Z,13.20
2023-09-23T04:15:35.232Z,13.20
2023-09-23T04:18:06.873Z,13.30
2023-09-23T04:20:33.903Z,13.30
2023-09-23T04:23:00.891Z,13.30
2023-09-23T04:25:27.837Z,13.30
2023-09-23T04:27:54.785Z,13.20
2023-09-23T04:30:21.813Z,13.20
2023-09-23T04:32:48.967Z,13.20
2023-09-23T04:35:17.401Z,13.20
2023-09-23T04:37:44.450Z,13.20
2023-09-23T04:40:13.534Z,13.20
2023-09-23T04:42:43.499Z,13.20
2023-09-23T04:45:12.565Z,13.20
2023-09-23T04:47:41.456Z,13.20
2023-09-23T04:50:13.476Z,13.20
2023-09-23T04:52:42.189Z,13.20
2023-09-23T04:55:09.767Z,13.20
2023-09-23T04:57:37.389Z,13.20
2023-09-23T05:00:10.735Z,13.10
2023-09-23T05:02:40.756Z,13.10
2023-09-23T05:05:10.844Z,13.10
2023-09-23T05:07:38.557Z,13.20
2023-09-23T05:10:07.755Z,13.10
2023-09-23T05:12:35.098Z,13.20
2023-09-23T05:15:02.199Z,13.10
2023-09-23T05:17:29.671Z,13.20
2023-09-23T05:19:56.772Z,13.20
2023-09-23T05:22:23.782Z,13.20
2023-09-23T05:24:57.796Z,13.20
2023-09-23T05:27:25.803Z,13.20
2023-09-23T05:29:53.133Z,13.10
2023-09-23T05:32:21.585Z,13.10
2023-09-23T05:34:52.312Z,13.20
2023-09-23T05:37:19.277Z,13.20
2023-09-23T05:39:47.236Z,13.10
2023-09-23T05:42:16.796Z,13.10
2023-09-23T05:44:45.217Z,13.10
2023-09-23T05:47:12.294Z,13.10
2023-09-23T05:49:39.981Z,13.00
2023-09-23T05:52:07.360Z,13.10
2023-09-23T05:54:34.701Z,13.10
2023-09-23T05:57:01.558Z,13.10
2023-09-23T05:59:28.490Z,13.10
2023-09-23T06:01:55.373Z,13.10
2023-09-23T06:04:22.342Z,13.10
2023-09-23T06:06:49.736Z,13.10
2023-09-23T06:09:16.620Z,13.10
2023-09-23T06:11:44.250Z,13.10
2023-09-23T06:14:12.812Z,13.10
2023-09-23T06:16:39.918Z,13.10
2023-09-23T06:19:08.107Z,13.10
2023-09-23T06:21:36.491Z,13.10
2023-09-23T06:24:03.860Z,13.20
2023-09-23T06:26:30.708Z,13.20
2023-09-23T06:28:58.134Z,13.20
2023-09-23T06:31:25.227Z,13.20
2023-09-23T06:33:52.172Z,13.20
2023-09-23T06:36:19.156Z,13.10
2023-09-23T06:38:46.029Z,13.10
2023-09-23T06:41:13.021Z,13.10
2023-09-23T06:43:39.924Z,13.10
2023-09-23T06:46:06.766Z,13.10
2023-09-23T06:48:33.764Z,13.10
2023-09-23T06:51:03.879Z,13.10
2023-09-23T06:53:31.924Z,13.10
2023-09-23T06:55:58.951Z,13.20
2023-09-23T06:58:25.900Z,13.30
2023-09-23T07:00:52.910Z,13.30
2023-09-23T07:03:19.974Z,13.30
2023-09-23T07:05:48.714Z,13.40
2023-09-23T07:08:16.504Z,13.40
2023-09-23T07:10:43.501Z,13.30
2023-09-23T07:13:13.188Z,13.30
2023-09-23T07:15:41.894Z,13.30
2023-09-23T07:18:09.813Z,13.30
2023-09-23T07:20:37.128Z,13.40
2023-09-23T07:23:04.586Z,13.50
2023-09-23T07:25:38.198Z,13.50
2023-09-23T07:28:07.845Z,13.60
2023-09-23T07:30:36.273Z,13.60
2023-09-23T07:33:04.064Z,13.70
2023-09-23T07:35:35.176Z,13.70
2023-09-23T07:38:03.881Z,13.70
2023-09-23T07:40:32.140Z,13.80
2023-09-23T07:42:59.237Z,14.00
2023-09-23T07:45:26.261Z,14.10
2023-09-23T07:47:53.250Z,14.10
2023-09-23T07:50:20.229Z,14.10
2023-09-23T07:52:47.103Z,14.10
2023-09-23T07:55:14.969Z,14.10
2023-09-23T07:57:42.057Z,14.10
2023-09-23T08:00:09.907Z,14.10
2023-09-23T08:02:37.504Z,14.10
2023-09-23T08:05:05.751Z,14.10
2023-09-23T08:07:33.750Z,14.20
2023-09-23T08:10:00.784Z,14.20
2023-09-23T08:12:28.519Z,14.20
2023-09-23T08:14:55.610Z,14.10
2023-09-23T08:17:22.766Z,14.20
2023-09-23T08:19:52.118Z,14.20
2023-09-23T08:22:19.362Z,14.10
2023-09-23T08:24:46.430Z,14.10
2023-09-23T08:27:13.837Z,14.10
2023-09-23T08:29:40.916Z,14.20
2023-09-23T08:32:08.000Z,14.40
2023-09-23T08:34:34.936Z,14.50
2023-09-23T08:37:02.181Z,14.50
2023-09-23T08:39:29.606Z,14.50
2023-09-23T08:41:58.420Z,14.70
2023-09-23T08:44:27.842Z,14.90
2023-09-23T08:46:55.251Z,14.90
2023-09-23T08:49:25.518Z,14.80
2023-09-23T08:51:56.708Z,14.90
2023-09-23T08:54:30.301Z,15.00
2023-09-23T08:56:57.480Z,15.00
2023-09-23T08:59:27.830Z,15.00
2023-09-23T09:01:56.435Z,15.10
2023-09-23T09:04:24.396Z,15.40
2023-09-23T09:06:53.257Z,15.50
2023-09-23T09:09:20.404Z,15.60
2023-09-23T09:11:52.254Z,15.50
2023-09-23T09:14:19.753Z,15.50
2023-09-23T09:16:47.011Z,15.50
2023-09-23T09:19:14.049Z,15.20
2023-09-23T09:21:42.370Z,15.20
2023-09-23T09:24:10.467Z,15.30
2023-09-23T09:26:39.567Z,15.40
2023-09-23T09:29:06.603Z,15.60
2023-09-23T09:31:37.390Z,15.80
2023-09-23T09:34:12.624Z,15.80
2023-09-23T09:36:40.265Z,16.00
2023-09-23T09:39:11.991Z,16.00
2023-09-23T09:41:59.753Z,16.20
2023-09-23T09:44:29.528Z,16.70
2023-09-23T09:46:58.184Z,17.10
2023-09-23T09:49:26.186Z,17.30
2023-09-23T09:51:53.541Z,17.10
2023-09-23T09:54:26.285Z,17.10
2023-09-23T09:56:54.591Z,17.10
2023-09-23T09:59:31.488Z,17.00
2023-09-23T10:02:00.146Z,17.00
2023-09-23T10:04:33.978Z,17.00
2023-09-23T10:07:01.587Z,17.10
2023-09-23T10:09:33.132Z,17.00
2023-09-23T10:12:00.835Z,16.90
2023-09-23T10:14:28.279Z,16.80
2023-09-23T10:17:03.006Z,16.90
2023-09-23T10:19:34.933Z,16.90
2023-09-23T10:22:19.057Z,16.90
2023-09-23T10:24:47.998Z,16.90
2023-09-23T10:27:22.945Z,16.80
2023-09-23T10:29:51.022Z,16.80
2023-09-23T10:32:19.628Z,16.80
2023-09-23T10:34:56.794Z,16.80
2023-09-23T10:37:36.545Z,16.80
2023-09-23T10:40:15.527Z,16.80
2023-09-23T10:42:43.029Z,16.80
2023-09-23T10:45:12.411Z,16.70
2023-09-23T10:47:39.489Z,16.80
2023-09-23T10:50:09.125Z,16.90
2023-09-23T10:52:36.497Z,17.00
2023-09-23T10:55:04.468Z,16.70
2023-09-23T10:57:31.392Z,17.00
2023-09-23T10:59:59.402Z,17.20
2023-09-23T11:02:26.659Z,17.10
2023-09-23T11:04:57.119Z,17.10
2023-09-23T11:07:26.064Z,17.30
2023-09-23T11:09:54.999Z,17.80
2023-09-23T11:12:21.916Z,18.30
2023-09-23T11:14:49.846Z,18.70
2023-09-23T11:17:27.635Z,18.90
2023-09-23T11:19:59.174Z,18.70
2023-09-23T11:22:30.747Z,18.70
2023-09-23T11:24:59.388Z,18.40
2023-09-23T11:27:28.135Z,18.30
2023-09-23T11:29:56.530Z,18.10
2023-09-23T11:32:28.249Z,17.80
2023-09-23T11:34:56.077Z,17.40
2023-09-23T11:37:25.935Z,17.50
2023-09-23T11:39:52.926Z,17.60
2023-09-23T11:42:20.429Z,17.80
2023-09-23T11:44:47.730Z,18.00
2023-09-23T11:47:19.217Z,17.90
2023-09-23T11:49:46.275Z,17.80
2023-09-23T11:52:13.940Z,17.70
2023-09-23T11:54:42.025Z,17.70
2023-09-23T11:57:09.859Z,17.70
2023-09-23T11:59:38.000Z,17.80
2023-09-23T12:02:05.549Z,17.90
2023-09-23T12:04:32.968Z,18.00
2023-09-23T12:07:00.126Z,18.00
2023-09-23T12:09:29.018Z,18.00
2023-09-23T12:11:55.993Z,18.20
2023-09-23T12:14:22.975Z,18.40
2023-09-23T12:16:49.871Z,18.80
2023-09-23T12:19:16.835Z,19.20
2023-09-23T12:21:43.803Z,19.30
2023-09-23T12:24:10.729Z,19.30
2023-09-23T12:26:37.660Z,19.30
2023-09-23T12:29:04.692Z,19.30
2023-09-23T12:31:31.643Z,19.20
2023-09-23T12:33:58.656Z,19.20
2023-09-23T12:36:26.129Z,19.00
2023-09-23T12:38:55.748Z,18.90
2023-09-23T12:41:22.922Z,18.90
2023-09-23T12:43:49.924Z,18.80
2023-09-23T12:46:16.866Z,18.80
2023-09-23T12:48:45.072Z,19.10
2023-09-23T12:51:13.854Z,19.50
2023-09-23T12:53:41.119Z,19.90
2023-09-23T12:56:09.521Z,20.10
2023-09-23T12:58:36.526Z,20.40
2023-09-23T13:01:03.746Z,20.50
2023-09-23T13:03:30.869Z,20.80
2023-09-23T13:05:58.011Z,21.00
2023-09-23T13:08:25.064Z,20.80
2023-09-23T13:10:52.902Z,20.70
2023-09-23T13:13:19.844Z,20.60
2023-09-23T13:15:46.827Z,20.30
2023-09-23T13:18:13.783Z,20.10
2023-09-23T13:20:40.864Z,19.90
2023-09-23T13:23:08.732Z,19.80
2023-09-23T13:25:35.964Z,19.70
2023-09-23T13:28:02.886Z,19.60
2023-09-23T13:30:29.960Z,19.80
2023-09-23T13:32:56.983Z,19.90
2023-09-23T13:35:23.876Z,20.20
2023-09-23T13:37:51.061Z,20.40
2023-09-23T13:40:18.134Z,20.40
2023-09-23T13:42:45.100Z,20.40
2023-09-23T13:45:12.561Z,20.70
2023-09-23T13:47:39.741Z,20.80
2023-09-23T13:50:10.616Z,21.10
2023-09-23T13:52:38.034Z,21.20
2023-09-23T13:55:09.245Z,20.80
2023-09-23T13:57:36.649Z,20.40
2023-09-23T14:00:05.942Z,20.10
2023-09-23T14:02:33.522Z,19.80
2023-09-23T14:05:00.591Z,19.60
2023-09-23T14:07:28.432Z,19.50
2023-09-23T14:10:00.771Z,19.40
2023-09-23T14:12:31.769Z,19.90
2023-09-23T14:14:58.837Z,20.40
2023-09-23T14:17:27.358Z,21.10
2023-09-23T14:19:54.622Z,21.40
2023-09-23T14:22:21.543Z,21.30
2023-09-23T14:24:48.399Z,21.10
2023-09-23T14:27:16.167Z,21.00
2023-09-23T14:29:43.021Z,21.00
2023-09-23T14:32:09.910Z,20.90
2023-09-23T14:34:36.794Z,20.80
2023-09-23T14:37:03.731Z,20.80
2023-09-23T14:39:30.571Z,20.70
2023-09-23T14:41:57.476Z,20.50
2023-09-23T14:44:24.367Z,20.30
2023-09-23T14:46:51.171Z,19.90
2023-09-23T14:49:18.046Z,19.50
2023-09-23T14:51:45.003Z,19.10
2023-09-23T14:54:11.860Z,18.80
2023-09-23T14:56:38.724Z,18.70
2023-09-23T14:59:05.639Z,18.70
2023-09-23T15:01:34.075Z,18.70
2023-09-23T15:04:01.268Z,18.50
2023-09-23T15:06:28.271Z,18.40
2023-09-23T15:09:00.564Z,18.20
2023-09-23T15:11:30.874Z,18.20
2023-09-23T15:13:58.340Z,18.10
2023-09-23T15:16:25.477Z,18.00
2023-09-23T15:18:52.530Z,18.00
2023-09-23T15:21:19.432Z,18.00
2023-09-23T15:23:46.318Z,17.90
2023-09-23T15:26:13.355Z,17.80
2023-09-23T15:28:40.870Z,17.80
2023-09-23T15:31:08.866Z,17.80
2023-09-23T15:33:36.887Z,17.80
2023-09-23T15:36:04.236Z,17.80
2023-09-23T15:38:31.211Z,17.80
2023-09-23T15:40:58.079Z,17.80
2023-09-23T15:43:25.018Z,17.80
2023-09-23T15:46:02.561Z,17.70
2023-09-23T15:48:29.437Z,17.60
2023-09-23T15:50:56.540Z,17.60
2023-09-23T15:53:23.862Z,17.50
2023-09-23T15:55:54.089Z,17.50
2023-09-23T15:58:21.256Z,17.40
2023-09-23T16:00:48.599Z,17.40
2023-09-23T16:03:15.887Z,17.40
2023-09-23T16:05:43.525Z,17.30
2023-09-23T16:08:10.620Z,17.30
2023-09-23T16:10:37.639Z,17.20
2023-09-23T16:13:05.626Z,17.20
2023-09-23T16:15:32.837Z,17.10
2023-09-23T16:17:59.904Z,17.00
2023-09-23T16:20:26.854Z,17.00
2023-09-23T16:22:53.821Z,16.90
2023-09-23T16:25:20.754Z,16.80
2023-09-23T16:27:47.635Z,16.70
2023-09-23T16:30:14.608Z,16.70
2023-09-23T16:32:41.582Z,16.60
2023-09-23T16:35:11.960Z,16.50
2023-09-23T16:37:38.975Z,16.50
2023-09-23T16:40:08.417Z,16.40
2023-09-23T16:42:35.396Z,16.30
2023-09-23T16:45:02.377Z,16.20
2023-09-23T16:47:29.374Z,16.10
2023-09-23T16:49:56.216Z,16.00
2023-09-23T16:52:23.220Z,16.00
2023-09-23T16:54:50.642Z,15.90
2023-09-23T16:57:19.791Z,15.70
2023-09-23T16:59:47.685Z,15.70
2023-09-23T17:02:15.492Z,15.60
2023-09-23T17:04:46.643Z,15.50
2023-09-23T17:07:14.437Z,15.40
2023-09-23T17:09:42.771Z,15.30
2023-09-23T17:12:12.012Z,15.30
2023-09-23T17:14:38.918Z,15.20
2023-09-23T17:17:05.949Z,15.10
2023-09-23T17:19:32.837Z,15.00
2023-09-23T17:22:00.544Z,14.90
2023-09-23T17:24:29.185Z,14.80
2023-09-23T17:26:56.261Z,14.70
2023-09-23T17:29:23.183Z,14.60
2023-09-23T17:31:50.565Z,14.50
2023-09-23T17:34:17.683Z,14.40
2023-09-23T17:36:44.603Z,14.30
2023-09-23T17:39:12.094Z,14.30
2023-09-23T17:41:39.515Z,14.30
2023-09-23T17:44:07.136Z,14.20
2023-09-23T17:46:34.503Z,14.10
2023-09-23T17:49:01.433Z,14.10
2023-09-23T17:51:28.523Z,14.00
2023-09-23T17:53:55.859Z,14.00
2023-09-23T17:56:23.207Z,14.00
2023-09-23T17:58:50.252Z,13.80
2023-09-23T18:01:17.291Z,13.80
2023-09-23T18:03:44.360Z,13.70
2023-09-23T18:06:13.459Z,13.60
2023-09-23T18:08:40.642Z,13.60
2023-09-23T18:11:10.298Z,13.50
2023-09-23T18:13:42.977Z,13.50
2023-09-23T18:16:09.894Z,13.40
2023-09-23T18:18:36.963Z,13.40
2023-09-23T18:21:03.958Z,13.30
2023-09-23T18:23:30.963Z,13.30
2023-09-23T18:25:57.988Z,13.20
2023-09-23T18:28:25.482Z,13.20
2023-09-23T18:30:53.434Z,13.20
2023-09-23T18:33:20.447Z,13.10
2023-09-23T18:35:48.658Z,13.00
2023-09-23T18:38:15.651Z,13.00
2023-09-23T18:40:42.474Z,12.90
2023-09-23T18:43:11.091Z,12.90
2023-09-23T18:45:38.056Z,12.90
2023-09-23T18:48:23.861Z,12.90
2023-09-23T18:50:52.599Z,12.90
2023-09-23T18:53:19.631Z,12.90
2023-09-23T18:55:46.618Z,12.80
2023-09-23T18:58:13.693Z,12.70
2023-09-23T19:00:40.965Z,12.70
2023-09-23T19:03:08.529Z,12.70
2023-09-23T19:05:36.374Z,12.70
2023-09-23T19:08:04.183Z,12.70
2023-09-23T19:10:31.116Z,12.60
2023-09-23T19:12:58.239Z,12.60
2023-09-23T19:15:25.166Z,12.60
2023-09-23T19:17:52.188Z,12.70
2023-09-23T19:20:19.479Z,12.70
2023-09-23T19:22:46.806Z,12.60
2023-09-23T19:25:13.792Z,12.60
2023-09-23T19:27:43.700Z,12.70
2023-09-23T19:30:14.446Z,12.70
2023-09-23T19:32:42.692Z,12.60
2023-09-23T19:35:10.357Z,12.60
2023-09-23T19:37:38.655Z,12.50
2023-09-23T19:40:07.279Z,12.50
2023-09-23T19:42:35.622Z,12.60
2023-09-23T19:45:05.039Z,12.70
2023-09-23T19:47:33.144Z,12.60
2023-09-23T19:50:01.178Z,12.60
2023-09-23T19:52:35.088Z,12.50
2023-09-23T19:55:03.007Z,12.50
2023-09-23T19:57:29.890Z,12.50
2023-09-23T19:59:57.389Z,12.40
2023-09-23T20:02:24.458Z,12.40
2023-09-23T20:04:51.480Z,12.40
2023-09-23T20:07:18.413Z,12.40
2023-09-23T20:09:45.427Z,12.50
2023-09-23T20:12:12.370Z,12.40
2023-09-23T20:14:39.515Z,12.40
2023-09-23T20:17:08.022Z,12.40
2023-09-23T20:19:35.209Z,12.40
2023-09-23T20:22:03.312Z,12.40
2023-09-23T20:24:30.296Z,12.40
2023-09-23T20:26:57.203Z,12.40
2023-09-23T20:29:24.523Z,12.30
2023-09-23T20:31:51.673Z,12.30
2023-09-23T20:34:19.048Z,12.30
2023-09-23T20:36:46.053Z,12.30
2023-09-23T20:39:13.284Z,12.20
2023-09-23T20:41:40.477Z,12.20
2023-09-23T20:44:07.566Z,12.20
2023-09-23T20:46:34.765Z,12.20
2023-09-23T20:49:01.852Z,12.20
2023-09-23T20:51:29.355Z,12.20
2023-09-23T20:53:57.226Z,12.20
2023-09-23T20:56:24.352Z,12.20
2023-09-23T20:58:51.860Z,12.20
2023-09-23T21:01:18.913Z,12.10
2023-09-23T21:03:45.954Z,12.00
2023-09-23T21:06:12.920Z,12.00
2023-09-23T21:08:39.821Z,11.90
2023-09-23T21:11:06.753Z,11.80
2023-09-23T21:13:33.567Z,11.80
2023-09-23T21:16:04.559Z,11.70
2023-09-23T21:18:32.274Z,11.60
2023-09-23T21:20:59.228Z,11.60
2023-09-23T21:23:26.495Z,11.60
2023-09-23T21:25:53.644Z,11.50
2023-09-23T21:28:20.807Z,11.50
2023-09-23T21:30:47.761Z,11.50
2023-09-23T21:33:15.091Z,11.40
2023-09-23T21:35:42.809Z,11.40
2023-09-23T21:38:09.845Z,11.30
2023-09-23T21:40:41.335Z,11.30
2023-09-23T21:43:11.268Z,11.20
2023-09-23T21:45:40.158Z,11.20
2023-09-23T21:48:10.628Z,11.20
2023-09-23T21:50:37.931Z,11.20
2023-09-23T21:53:06.211Z,11.10
2023-09-23T21:55:33.301Z,11.00
2023-09-23T21:58:00.224Z,11.00
2023-09-23T22:00:27.911Z,10.90
2023-09-23T22:03:00.815Z,10.90
2023-09-23T22:05:30.367Z,10.80
2023-09-23T22:07:59.866Z,10.70
2023-09-23T22:10:28.134Z,10.60
2023-09-23T22:12:57.490Z,10.60
2023-09-23T22:15:26.906Z,10.70
2023-09-23T22:17:55.050Z,10.60
2023-09-23T22:20:25.586Z,10.60
2023-09-23T22:22:52.985Z,10.60
2023-09-23T22:25:23.109Z,10.70
2023-09-23T22:27:54.908Z,10.60
2023-09-23T22:30:26.950Z,10.60
2023-09-23T22:32:59.460Z,10.60
2023-09-23T22:35:31.387Z,10.60
2023-09-23T22:38:04.253Z,10.60
2023-09-23T22:40:31.792Z,10.60
2023-09-23T22:42:59.606Z,10.60
2023-09-23T22:45:37.963Z,10.60
2023-09-23T22:48:07.102Z,10.60
2023-09-23T22:50:34.913Z,10.60
2023-09-23T22:53:02.079Z,10.50
2023-09-23T22:55:28.946Z,10.50
2023-09-23T22:57:55.841Z,10.50
2023-09-23T23:00:26.577Z,10.40
2023-09-23T23:02:55.374Z,10.40
2023-09-23T23:05:22.465Z,10.40
2023-09-23T23:07:53.650Z,10.30
2023-09-23T23:10:21.178Z,10.30
2023-09-23T23:12:48.917Z,10.30
2023-09-23T23:15:17.992Z,10.20
2023-09-23T23:17:47.694Z,10.10
2023-09-23T23:20:23.994Z,10.10
2023-09-23T23:22:52.643Z,10.00
2023-09-23T23:25:20.003Z,10.00
2023-09-23T23:27:47.558Z,10.00
2023-09-23T23:30:19.792Z,10.00
2023-09-23T23:32:47.754Z,10.00
2023-09-23T23:35:22.648Z,10.00
2023-09-23T23:37:49.755Z,9.90
2023-09-23T23:40:21.217Z,9.90
2023-09-23T23:42:48.379Z,9.90
2023-09-23T23:45:17.161Z,9.80
2023-09-23T23:47:44.077Z,9.80
2023-09-23T23:50:11.502Z,9.70
2023-09-23T23:52:38.347Z,9.70
2023-09-23T23:55:05.688Z,9.60
2023-09-23T23:57:32.556Z,9.60
2023-09-23T23:59:59.510Z,9.60
